Galeton, Colorado
Current Conditions -  °F | °C
As of 1:15 AM on Thursday 27 Nov 2014 (Local Time) from KGXY Reporting Station
Clear Clear  
Wind Chill: -9°   Ceiling: Unl
Heat Index: -5°   Visibility: 10mi
Dew Point: -9°   Wind: 6mph
Humidity: 74%   Direction: 310°NW
Pressure: 30.28"   Gusts: NA
Location:  40.52°N, 104.59°W
Report Text: KGXY 270815Z AUTO 31005KT 10SM CLR M05/M09 A3028 RMK AO1
Loading
Personal Weather Stations






























Interactive Weather Map New forecast layout! Learn more

10-Day Weather Forecast

Advertisements
Track Severe Weather on mobile